createdAt,value
2023-01-20T00:02:04.406Z,-0.30
2023-01-20T00:04:32.582Z,-0.30
2023-01-20T00:14:27.722Z,-0.50
2023-01-20T00:19:27.407Z,-0.60
2023-01-20T00:29:21.472Z,-0.70
2023-01-20T00:31:49.689Z,-0.70
2023-01-20T00:36:47.832Z,-0.80
2023-01-20T00:49:11.401Z,-0.80
2023-01-20T00:54:09.558Z,-0.80
2023-01-20T00:56:37.774Z,-0.80
2023-01-20T01:09:00.433Z,-0.90
2023-01-20T01:11:29.959Z,-0.90
2023-01-20T01:13:58.418Z,-0.90
2023-01-20T01:16:26.694Z,-0.90
2023-01-20T01:18:55.779Z,-1.00
2023-01-20T01:21:24.121Z,-1.00
2023-01-20T01:23:54.487Z,-1.00
2023-01-20T01:26:22.770Z,-1.00
2023-01-20T01:28:53.366Z,-0.90
2023-01-20T01:36:20.010Z,-1.00
2023-01-20T01:44:08.736Z,-1.00
2023-01-20T01:46:37.297Z,-1.00
2023-01-20T01:49:11.308Z,-1.00
2023-01-20T01:51:43.955Z,-1.00
2023-01-20T01:54:16.627Z,-1.00
2023-01-20T01:56:47.404Z,-1.00
2023-01-20T01:59:18.795Z,-1.00
2023-01-20T02:01:52.739Z,-1.10
2023-01-20T02:04:23.867Z,-1.10
2023-01-20T02:09:24.782Z,-1.10
2023-01-20T02:11:58.573Z,-1.10
2023-01-20T02:14:33.364Z,-1.10
2023-01-20T02:17:10.719Z,-1.10
2023-01-20T02:20:26.634Z,-1.20
2023-01-20T02:23:02.165Z,-1.20
2023-01-20T02:26:04.887Z,-1.10
2023-01-20T02:29:13.247Z,-1.20
2023-01-20T02:32:11.049Z,-1.10
2023-01-20T02:34:45.839Z,-1.10
2023-01-20T02:37:18.278Z,-1.10
2023-01-20T02:39:59.638Z,-1.10
2023-01-20T02:42:39.440Z,-1.10
2023-01-20T02:45:16.398Z,-1.20
2023-01-20T02:47:52.270Z,-1.10
2023-01-20T02:50:29.637Z,-1.10
2023-01-20T02:53:02.524Z,-1.10
2023-01-20T02:55:37.455Z,-1.10
2023-01-20T02:58:12.314Z,-1.10
2023-01-20T03:00:45.488Z,-1.10
2023-01-20T03:03:20.251Z,-1.10
2023-01-20T03:05:55.261Z,-1.10
2023-01-20T03:08:27.108Z,-1.10
2023-01-20T03:10:57.962Z,-1.10
2023-01-20T03:13:34.334Z,-1.10
2023-01-20T03:16:07.662Z,-1.10
2023-01-20T03:18:38.981Z,-1.10
2023-01-20T03:21:11.187Z,-1.10
2023-01-20T03:23:42.950Z,-1.10
2023-01-20T03:26:14.390Z,-1.10
2023-01-20T03:31:18.263Z,-1.10
2023-01-20T03:33:51.130Z,-1.20
2023-01-20T03:36:21.808Z,-1.20
2023-01-20T03:38:50.930Z,-1.20
2023-01-20T03:41:32.958Z,-1.20
2023-01-20T03:44:12.486Z,-1.10
2023-01-20T03:46:47.180Z,-1.20
2023-01-20T03:49:28.045Z,-1.10
2023-01-20T03:52:04.442Z,-1.20
2023-01-20T03:54:38.252Z,-1.10
2023-01-20T03:57:13.393Z,-1.20
2023-01-20T03:59:44.314Z,-1.20
2023-01-20T04:02:13.500Z,-1.20
2023-01-20T04:04:45.938Z,-1.20
2023-01-20T04:07:21.491Z,-1.20
2023-01-20T04:09:53.713Z,-1.30
2023-01-20T04:19:50.001Z,-1.30
2023-01-20T04:22:26.518Z,-1.30
2023-01-20T04:24:59.643Z,-1.30
2023-01-20T04:34:55.135Z,-1.40
2023-01-20T04:39:51.989Z,-1.50
2023-01-20T04:52:15.770Z,-1.50
2023-01-20T05:09:37.837Z,-1.80
2023-01-20T05:27:02.816Z,-1.90
2023-01-20T05:31:59.797Z,-1.90
2023-01-20T05:34:28.122Z,-1.90
2023-01-20T05:44:23.885Z,-1.90
2023-01-20T05:49:20.617Z,-1.90
2023-01-20T05:54:17.874Z,-2.00
2023-01-20T05:59:16.784Z,-2.00
2023-01-20T06:01:46.420Z,-2.00
2023-01-20T06:11:40.398Z,-2.10
2023-01-20T06:19:07.144Z,-2.10
2023-01-20T06:26:32.462Z,-2.10
2023-01-20T06:33:58.226Z,-2.00
2023-01-20T06:36:27.872Z,-2.00
2023-01-20T06:51:21.536Z,-2.00
2023-01-20T06:53:51.133Z,-2.00
2023-01-20T06:56:19.326Z,-2.00
2023-01-20T07:01:20.901Z,-1.90
2023-01-20T07:06:23.571Z,-1.80
2023-01-20T07:08:53.655Z,-1.80
2023-01-20T07:11:22.086Z,-1.80
2023-01-20T07:16:18.971Z,-1.60
2023-01-20T07:18:50.158Z,-1.60
2023-01-20T07:21:19.535Z,-1.50
2023-01-20T07:26:20.638Z,-1.50
2023-01-20T07:28:49.854Z,-1.40
2023-01-20T07:31:21.579Z,-1.30
2023-01-20T07:33:50.368Z,-1.30
2023-01-20T07:36:19.940Z,-1.30
2023-01-20T07:38:49.509Z,-1.30
2023-01-20T07:41:20.817Z,-1.20
2023-01-20T07:43:51.376Z,-1.20
2023-01-20T07:46:20.297Z,-1.20
2023-01-20T07:51:18.476Z,-1.10
2023-01-20T07:53:50.847Z,-1.00
2023-01-20T07:56:24.514Z,-1.00
2023-01-20T08:01:25.001Z,-0.90
2023-01-20T08:03:53.894Z,-0.80
2023-01-20T08:06:24.831Z,-0.70
2023-01-20T08:11:24.152Z,-0.60
2023-01-20T08:21:22.057Z,-0.20
2023-01-20T08:26:20.359Z,0.00
2023-01-20T08:28:49.986Z,0.10
2023-01-20T08:31:23.358Z,0.10
2023-01-20T08:33:55.316Z,0.20
2023-01-20T08:36:26.358Z,0.30
2023-01-20T08:38:56.750Z,0.30
2023-01-20T08:41:28.532Z,0.30
2023-01-20T08:44:00.580Z,0.40
2023-01-20T08:46:29.428Z,0.50
2023-01-20T08:51:29.507Z,0.70
2023-01-20T09:01:29.530Z,2.30
2023-01-20T09:04:05.846Z,2.70
2023-01-20T09:06:40.736Z,3.00
2023-01-20T09:11:38.085Z,3.30
2023-01-20T09:14:06.733Z,3.40
2023-01-20T09:16:36.414Z,3.60
2023-01-20T09:24:01.941Z,3.80
2023-01-20T09:29:11.942Z,3.60
2023-01-20T09:31:45.249Z,3.70
2023-01-20T09:34:19.001Z,3.40
2023-01-20T09:36:50.788Z,3.30
2023-01-20T09:42:43.559Z,3.10
2023-01-20T09:45:26.046Z,3.30
2023-01-20T09:48:14.114Z,3.50
2023-01-20T09:51:09.402Z,3.70
2023-01-20T09:53:49.669Z,3.80
2023-01-20T09:56:20.398Z,4.00
2023-01-20T09:58:56.976Z,4.40
2023-01-20T10:01:31.761Z,5.20
2023-01-20T10:04:10.527Z,4.90
2023-01-20T10:06:44.447Z,4.90
2023-01-20T10:09:22.433Z,4.90
2023-01-20T10:11:52.568Z,4.80
2023-01-20T10:14:29.124Z,4.80
2023-01-20T10:17:09.204Z,4.80
2023-01-20T10:19:45.559Z,4.70
2023-01-20T10:22:22.141Z,4.70
2023-01-20T10:24:58.885Z,4.80
2023-01-20T10:27:30.910Z,4.80
2023-01-20T10:30:08.905Z,4.80
2023-01-20T10:32:39.857Z,4.90
2023-01-20T10:35:18.093Z,5.20
2023-01-20T10:37:46.698Z,5.50
2023-01-20T10:40:30.947Z,5.60
2023-01-20T10:43:05.461Z,5.60
2023-01-20T10:45:50.411Z,5.50
2023-01-20T10:48:29.166Z,5.50
2023-01-20T10:51:05.996Z,4.90
2023-01-20T10:53:51.716Z,4.80
2023-01-20T10:56:37.583Z,4.50
2023-01-20T10:59:14.658Z,4.30
2023-01-20T11:01:46.398Z,4.20
2023-01-20T11:04:21.277Z,4.10
2023-01-20T11:06:56.809Z,4.20
2023-01-20T11:09:34.185Z,4.40
2023-01-20T11:12:08.222Z,4.80
2023-01-20T11:14:36.576Z,4.90
2023-01-20T11:17:08.978Z,4.90
2023-01-20T11:19:54.020Z,5.00
2023-01-20T11:22:29.925Z,5.20
2023-01-20T11:25:00.526Z,5.40
2023-01-20T11:27:35.169Z,5.70
2023-01-20T11:30:19.682Z,5.80
2023-01-20T11:35:25.546Z,6.20
2023-01-20T11:37:55.240Z,6.70
2023-01-20T11:40:26.780Z,6.80
2023-01-20T11:42:56.054Z,6.90
2023-01-20T11:45:29.108Z,6.90
2023-01-20T11:48:07.530Z,6.70
2023-01-20T11:50:40.007Z,6.50
2023-01-20T11:53:22.271Z,6.50
2023-01-20T11:55:54.137Z,6.50
2023-01-20T11:58:25.505Z,6.40
2023-01-20T12:01:01.493Z,6.50
2023-01-20T12:04:15.702Z,6.50
2023-01-20T12:06:54.358Z,6.40
2023-01-20T12:09:31.193Z,6.50
2023-01-20T12:12:02.766Z,6.60
2023-01-20T12:14:34.589Z,6.50
2023-01-20T12:17:21.678Z,6.50
2023-01-20T12:20:06.555Z,6.60
2023-01-20T12:22:47.030Z,6.50
2023-01-20T12:25:26.974Z,6.60
2023-01-20T12:28:00.276Z,6.50
2023-01-20T12:31:01.046Z,6.30
2023-01-20T12:33:33.751Z,6.10
2023-01-20T12:36:40.839Z,6.00
2023-01-20T12:39:53.646Z,5.90
2023-01-20T12:43:02.319Z,6.10
2023-01-20T12:45:53.994Z,6.20
2023-01-20T12:48:36.823Z,5.90
2023-01-20T12:51:32.257Z,5.80
2023-01-20T12:54:49.285Z,5.80
2023-01-20T12:57:36.218Z,5.70
2023-01-20T13:00:46.964Z,5.80
2023-01-20T13:04:06.348Z,5.90
2023-01-20T13:07:05.238Z,5.80
2023-01-20T13:09:53.611Z,5.60
2023-01-20T13:12:49.820Z,5.50
2023-01-20T13:15:29.024Z,5.40
2023-01-20T13:18:29.368Z,5.20
2023-01-20T13:21:01.726Z,5.10
2023-01-20T13:23:34.104Z,5.00
2023-01-20T13:28:33.595Z,4.80
2023-01-20T13:31:23.353Z,4.70
2023-01-20T13:33:53.135Z,4.70
2023-01-20T13:36:22.927Z,4.60
2023-01-20T13:39:40.582Z,4.70
2023-01-20T13:42:50.139Z,4.70
2023-01-20T13:45:25.759Z,4.80
2023-01-20T13:48:23.484Z,4.90
2023-01-20T13:50:53.858Z,4.60
2023-01-20T13:53:29.783Z,5.10
2023-01-20T13:56:26.285Z,5.10
2023-01-20T13:58:55.140Z,5.10
2023-01-20T14:04:04.686Z,5.10
2023-01-20T14:06:35.857Z,4.90
2023-01-20T14:09:11.272Z,5.00
2023-01-20T14:11:51.010Z,4.90
2023-01-20T14:14:21.344Z,4.80
2023-01-20T14:16:50.420Z,4.80
2023-01-20T14:19:24.811Z,4.80
2023-01-20T14:21:57.557Z,4.70
2023-01-20T14:24:29.329Z,4.70
2023-01-20T14:27:08.522Z,4.70
2023-01-20T14:32:22.285Z,4.60
2023-01-20T14:34:51.453Z,4.60
2023-01-20T14:37:30.773Z,4.50
2023-01-20T14:40:02.715Z,4.50
2023-01-20T14:44:59.855Z,4.40
2023-01-20T14:47:31.258Z,4.40
2023-01-20T14:52:32.083Z,4.40
2023-01-20T14:57:31.350Z,4.30
2023-01-20T15:00:13.914Z,4.20
2023-01-20T15:02:52.740Z,4.20
2023-01-20T15:05:31.959Z,4.20
2023-01-20T15:08:26.404Z,4.10
2023-01-20T15:11:31.316Z,4.10
2023-01-20T15:14:12.218Z,4.00
2023-01-20T15:16:52.087Z,4.00
2023-01-20T15:19:45.996Z,4.00
2023-01-20T15:22:26.899Z,3.90
2023-01-20T15:24:56.590Z,3.90
2023-01-20T15:27:33.349Z,3.90
2023-01-20T15:30:19.371Z,3.90
2023-01-20T15:32:49.052Z,3.80
2023-01-20T15:35:20.897Z,3.80
2023-01-20T15:37:49.652Z,3.80
2023-01-20T15:40:21.926Z,3.80
2023-01-20T15:42:51.224Z,3.70
2023-01-20T15:45:19.994Z,3.70
2023-01-20T15:47:49.683Z,3.70
2023-01-20T15:50:21.375Z,3.70
2023-01-20T15:52:50.052Z,3.60
2023-01-20T15:55:20.771Z,3.60
2023-01-20T15:57:52.870Z,3.60
2023-01-20T16:00:23.530Z,3.60
2023-01-20T16:02:52.160Z,3.50
2023-01-20T16:10:21.046Z,3.50
2023-01-20T16:15:19.226Z,3.40
2023-01-20T16:20:22.427Z,3.40
2023-01-20T16:22:51.275Z,3.40
2023-01-20T16:25:22.015Z,3.30
2023-01-20T16:27:50.542Z,3.30
2023-01-20T16:30:21.614Z,3.20
2023-01-20T16:35:20.945Z,3.30
2023-01-20T16:37:49.726Z,3.30
2023-01-20T16:40:22.160Z,3.20
2023-01-20T16:45:28.101Z,3.20
2023-01-20T16:47:57.176Z,3.20
2023-01-20T16:55:26.658Z,3.20
2023-01-20T17:07:56.797Z,2.60
2023-01-20T17:10:27.403Z,2.50
2023-01-20T17:12:56.852Z,2.40
2023-01-20T17:15:26.296Z,2.20
2023-01-20T17:17:58.183Z,2.10
2023-01-20T17:20:28.186Z,1.90
2023-01-20T17:22:56.408Z,1.80
2023-01-20T17:42:53.852Z,1.10
2023-01-20T17:45:22.203Z,1.00
2023-01-20T17:47:52.076Z,1.00
2023-01-20T17:57:46.825Z,1.00
2023-01-20T18:00:18.195Z,0.90
2023-01-20T18:10:12.841Z,0.90
2023-01-20T18:15:10.276Z,0.90
2023-01-20T18:17:43.224Z,0.90
2023-01-20T18:20:15.332Z,0.90
2023-01-20T18:22:50.034Z,0.90
2023-01-20T18:32:47.027Z,0.90
2023-01-20T18:40:14.221Z,0.90
2023-01-20T18:50:12.689Z,0.80
2023-01-20T18:52:40.907Z,0.70
2023-01-20T18:55:10.705Z,1.10
2023-01-20T18:57:38.936Z,0.70
2023-01-20T19:00:09.423Z,0.70
2023-01-20T19:05:07.372Z,0.70
2023-01-20T19:07:36.929Z,0.70
2023-01-20T19:17:32.896Z,0.70
2023-01-20T19:22:31.010Z,0.60
2023-01-20T19:25:00.596Z,0.60
2023-01-20T19:42:21.424Z,0.60
2023-01-20T19:54:43.661Z,0.60
2023-01-20T19:57:11.868Z,0.60
2023-01-20T19:59:41.457Z,0.60
2023-01-20T20:02:11.105Z,0.60
2023-01-20T20:07:07.827Z,0.50
2023-01-20T20:09:37.371Z,0.50
2023-01-20T20:12:08.039Z,0.50
2023-01-20T20:17:06.235Z,0.50
2023-01-20T20:19:35.025Z,0.50
2023-01-20T20:24:31.848Z,0.50
2023-01-20T20:34:27.241Z,0.50
2023-01-20T20:44:21.276Z,0.50
2023-01-20T20:51:48.708Z,0.50
2023-01-20T20:56:46.483Z,0.50
2023-01-20T21:04:12.183Z,0.50
2023-01-20T21:09:10.912Z,0.50
2023-01-20T21:16:39.060Z,0.50
2023-01-20T21:21:39.599Z,0.50
2023-01-20T21:24:10.846Z,0.50
2023-01-20T21:29:07.895Z,0.60
2023-01-20T21:31:36.281Z,0.60
2023-01-20T21:36:34.476Z,0.60
2023-01-20T21:39:03.053Z,0.60
2023-01-20T21:41:32.629Z,0.60
2023-01-20T21:46:46.813Z,0.60
2023-01-20T21:52:18.590Z,0.60
2023-01-20T21:57:17.096Z,0.50
2023-01-20T21:59:45.853Z,0.50
2023-01-20T22:02:15.214Z,0.50
2023-01-20T22:12:12.826Z,0.50
2023-01-20T22:14:42.881Z,0.50
2023-01-20T22:17:12.740Z,0.50
2023-01-20T22:19:41.703Z,0.50
2023-01-20T22:27:07.142Z,0.50
2023-01-20T22:32:05.956Z,0.50
2023-01-20T22:49:28.412Z,0.50
2023-01-20T22:59:22.251Z,0.50
2023-01-20T23:06:48.938Z,0.50
2023-01-20T23:19:12.716Z,0.50
2023-01-20T23:24:10.881Z,0.50
2023-01-20T23:41:32.426Z,0.50
2023-01-20T23:44:00.660Z,0.60
2023-01-20T23:51:25.925Z,0.50
2023-01-20T23:56:24.615Z,0.50
2023-01-20T23:58:54.342Z,0.50
